sensor_id;sensor_type;location;lat;lon;timestamp;temperature;humidity
4354;DHT22;11018;51.258;6.806;2023-03-04T00:00:05;5.90;38.70
4354;DHT22;11018;51.258;6.806;2023-03-04T00:02:31;5.90;38.10
4354;DHT22;11018;51.258;6.806;2023-03-04T00:04:57;5.90;38.90
4354;DHT22;11018;51.258;6.806;2023-03-04T00:07:22;5.90;38.70
4354;DHT22;11018;51.258;6.806;2023-03-04T00:09:48;6.00;39.00
4354;DHT22;11018;51.258;6.806;2023-03-04T00:12:13;5.90;39.00
4354;DHT22;11018;51.258;6.806;2023-03-04T00:14:40;5.90;39.20
4354;DHT22;11018;51.258;6.806;2023-03-04T00:17:05;6.00;39.20
4354;DHT22;11018;51.258;6.806;2023-03-04T00:19:31;6.00;38.80
4354;DHT22;11018;51.258;6.806;2023-03-04T00:21:57;6.00;38.30
4354;DHT22;11018;51.258;6.806;2023-03-04T00:24:23;6.00;38.50
4354;DHT22;11018;51.258;6.806;2023-03-04T00:26:49;6.00;38.80
4354;DHT22;11018;51.258;6.806;2023-03-04T00:29:15;5.90;40.00
4354;DHT22;11018;51.258;6.806;2023-03-04T00:31:40;5.80;41.10
4354;DHT22;11018;51.258;6.806;2023-03-04T00:34:06;5.80;42.10
4354;DHT22;11018;51.258;6.806;2023-03-04T00:36:31;5.90;40.90
4354;DHT22;11018;51.258;6.806;2023-03-04T00:38:57;5.70;41.90
4354;DHT22;11018;51.258;6.806;2023-03-04T00:41:22;5.80;41.20
4354;DHT22;11018;51.258;6.806;2023-03-04T00:43:48;5.90;40.30
4354;DHT22;11018;51.258;6.806;2023-03-04T00:46:14;5.90;41.20
4354;DHT22;11018;51.258;6.806;2023-03-04T00:48:39;6.00;40.70
4354;DHT22;11018;51.258;6.806;2023-03-04T00:51:05;6.20;38.70
4354;DHT22;11018;51.258;6.806;2023-03-04T00:53:30;6.20;38.90
4354;DHT22;11018;51.258;6.806;2023-03-04T00:55:56;6.10;38.90
4354;DHT22;11018;51.258;6.806;2023-03-04T00:58:21;6.00;39.90
4354;DHT22;11018;51.258;6.806;2023-03-04T01:00:47;6.00;40.60
4354;DHT22;11018;51.258;6.806;2023-03-04T01:03:12;6.00;40.10
4354;DHT22;11018;51.258;6.806;2023-03-04T01:05:38;6.00;39.70
4354;DHT22;11018;51.258;6.806;2023-03-04T01:08:04;6.00;39.50
4354;DHT22;11018;51.258;6.806;2023-03-04T01:10:30;6.00;40.10
4354;DHT22;11018;51.258;6.806;2023-03-04T01:12:56;5.90;40.70
4354;DHT22;11018;51.258;6.806;2023-03-04T01:15:22;5.80;41.60
4354;DHT22;11018;51.258;6.806;2023-03-04T01:17:48;5.90;41.60
4354;DHT22;11018;51.258;6.806;2023-03-04T01:20:14;5.80;42.40
4354;DHT22;11018;51.258;6.806;2023-03-04T01:22:39;6.00;41.20
4354;DHT22;11018;51.258;6.806;2023-03-04T01:25:05;6.00;40.70
4354;DHT22;11018;51.258;6.806;2023-03-04T01:27:31;6.00;41.00
4354;DHT22;11018;51.258;6.806;2023-03-04T01:29:57;6.10;40.60
4354;DHT22;11018;51.258;6.806;2023-03-04T01:32:22;6.10;40.50
4354;DHT22;11018;51.258;6.806;2023-03-04T01:34:48;6.00;41.20
4354;DHT22;11018;51.258;6.806;2023-03-04T01:37:13;6.00;40.90
4354;DHT22;11018;51.258;6.806;2023-03-04T01:39:39;6.00;41.20
4354;DHT22;11018;51.258;6.806;2023-03-04T01:42:05;6.10;40.80
4354;DHT22;11018;51.258;6.806;2023-03-04T01:44:31;6.00;40.80
4354;DHT22;11018;51.258;6.806;2023-03-04T01:46:57;5.90;41.20
4354;DHT22;11018;51.258;6.806;2023-03-04T01:49:23;5.90;41.60
4354;DHT22;11018;51.258;6.806;2023-03-04T01:51:52;5.90;42.30
4354;DHT22;11018;51.258;6.806;2023-03-04T01:54:19;5.80;42.80
4354;DHT22;11018;51.258;6.806;2023-03-04T01:56:47;5.80;42.40
4354;DHT22;11018;51.258;6.806;2023-03-04T01:59:18;5.90;41.70
4354;DHT22;11018;51.258;6.806;2023-03-04T02:01:53;5.80;42.20
4354;DHT22;11018;51.258;6.806;2023-03-04T02:04:22;5.80;42.80
4354;DHT22;11018;51.258;6.806;2023-03-04T02:06:48;5.80;43.10
4354;DHT22;11018;51.258;6.806;2023-03-04T02:09:15;5.80;43.90
4354;DHT22;11018;51.258;6.806;2023-03-04T02:11:42;5.80;43.30
4354;DHT22;11018;51.258;6.806;2023-03-04T02:14:09;5.80;43.60
4354;DHT22;11018;51.258;6.806;2023-03-04T02:16:35;5.90;43.20
4354;DHT22;11018;51.258;6.806;2023-03-04T02:19:02;5.90;42.90
4354;DHT22;11018;51.258;6.806;2023-03-04T02:21:33;5.90;43.00
4354;DHT22;11018;51.258;6.806;2023-03-04T02:24:26;5.90;43.20
4354;DHT22;11018;51.258;6.806;2023-03-04T02:26:53;5.90;43.70
4354;DHT22;11018;51.258;6.806;2023-03-04T02:29:19;5.90;43.90
4354;DHT22;11018;51.258;6.806;2023-03-04T02:31:48;5.80;44.00
4354;DHT22;11018;51.258;6.806;2023-03-04T02:34:19;5.80;44.20
4354;DHT22;11018;51.258;6.806;2023-03-04T02:36:46;5.80;44.40
4354;DHT22;11018;51.258;6.806;2023-03-04T02:41:45;5.80;45.50
4354;DHT22;11018;51.258;6.806;2023-03-04T02:44:37;5.80;45.10
4354;DHT22;11018;51.258;6.806;2023-03-04T02:47:05;5.80;45.40
4354;DHT22;11018;51.258;6.806;2023-03-04T02:49:32;5.80;45.60
4354;DHT22;11018;51.258;6.806;2023-03-04T02:52:07;5.70;45.70
4354;DHT22;11018;51.258;6.806;2023-03-04T02:54:33;5.80;46.20
4354;DHT22;11018;51.258;6.806;2023-03-04T02:57:01;5.70;46.00
4354;DHT22;11018;51.258;6.806;2023-03-04T02:59:27;5.70;46.40
4354;DHT22;11018;51.258;6.806;2023-03-04T03:01:53;5.80;46.50
4354;DHT22;11018;51.258;6.806;2023-03-04T03:04:19;5.80;46.10
4354;DHT22;11018;51.258;6.806;2023-03-04T03:06:46;5.80;46.10
4354;DHT22;11018;51.258;6.806;2023-03-04T03:09:12;5.70;46.60
4354;DHT22;11018;51.258;6.806;2023-03-04T03:11:37;5.80;46.80
4354;DHT22;11018;51.258;6.806;2023-03-04T03:14:03;5.80;46.80
4354;DHT22;11018;51.258;6.806;2023-03-04T03:16:29;5.80;46.40
4354;DHT22;11018;51.258;6.806;2023-03-04T03:18:55;5.80;46.00
4354;DHT22;11018;51.258;6.806;2023-03-04T03:21:20;5.80;46.20
4354;DHT22;11018;51.258;6.806;2023-03-04T03:23:46;5.80;45.00
4354;DHT22;11018;51.258;6.806;2023-03-04T03:26:11;5.80;44.90
4354;DHT22;11018;51.258;6.806;2023-03-04T03:28:37;5.80;44.90
4354;DHT22;11018;51.258;6.806;2023-03-04T03:31:03;5.80;45.00
4354;DHT22;11018;51.258;6.806;2023-03-04T03:33:28;5.80;45.30
4354;DHT22;11018;51.258;6.806;2023-03-04T03:35:54;5.80;45.30
4354;DHT22;11018;51.258;6.806;2023-03-04T03:38:19;5.80;45.60
4354;DHT22;11018;51.258;6.806;2023-03-04T03:40:45;5.80;44.10
4354;DHT22;11018;51.258;6.806;2023-03-04T03:43:11;5.80;43.70
4354;DHT22;11018;51.258;6.806;2023-03-04T03:45:36;5.80;43.70
4354;DHT22;11018;51.258;6.806;2023-03-04T03:48:03;5.90;42.10
4354;DHT22;11018;51.258;6.806;2023-03-04T03:50:28;5.80;41.80
4354;DHT22;11018;51.258;6.806;2023-03-04T03:52:54;5.80;42.20
4354;DHT22;11018;51.258;6.806;2023-03-04T03:55:20;5.80;41.70
4354;DHT22;11018;51.258;6.806;2023-03-04T03:57:46;5.80;41.60
4354;DHT22;11018;51.258;6.806;2023-03-04T04:00:12;5.80;41.40
4354;DHT22;11018;51.258;6.806;2023-03-04T04:02:38;5.80;41.60
4354;DHT22;11018;51.258;6.806;2023-03-04T04:05:05;5.90;41.20
4354;DHT22;11018;51.258;6.806;2023-03-04T04:07:30;6.00;41.30
4354;DHT22;11018;51.258;6.806;2023-03-04T04:09:56;6.00;41.00
4354;DHT22;11018;51.258;6.806;2023-03-04T04:12:22;6.00;40.90
4354;DHT22;11018;51.258;6.806;2023-03-04T04:14:47;6.00;41.20
4354;DHT22;11018;51.258;6.806;2023-03-04T04:17:13;6.00;41.50
4354;DHT22;11018;51.258;6.806;2023-03-04T04:19:39;6.00;41.60
4354;DHT22;11018;51.258;6.806;2023-03-04T04:22:06;6.10;41.60
4354;DHT22;11018;51.258;6.806;2023-03-04T04:24:33;6.10;41.50
4354;DHT22;11018;51.258;6.806;2023-03-04T04:26:58;6.10;41.30
4354;DHT22;11018;51.258;6.806;2023-03-04T04:29:24;6.10;41.50
4354;DHT22;11018;51.258;6.806;2023-03-04T04:31:49;6.10;42.00
4354;DHT22;11018;51.258;6.806;2023-03-04T04:34:15;6.10;42.30
4354;DHT22;11018;51.258;6.806;2023-03-04T04:36:41;6.00;42.50
4354;DHT22;11018;51.258;6.806;2023-03-04T04:39:06;6.00;42.50
4354;DHT22;11018;51.258;6.806;2023-03-04T04:41:41;6.00;43.10
4354;DHT22;11018;51.258;6.806;2023-03-04T04:44:07;5.90;43.90
4354;DHT22;11018;51.258;6.806;2023-03-04T04:46:33;5.90;44.20
4354;DHT22;11018;51.258;6.806;2023-03-04T04:48:59;5.90;44.30
4354;DHT22;11018;51.258;6.806;2023-03-04T04:51:25;5.90;44.20
4354;DHT22;11018;51.258;6.806;2023-03-04T04:53:50;6.00;43.90
4354;DHT22;11018;51.258;6.806;2023-03-04T04:56:18;6.00;43.00
4354;DHT22;11018;51.258;6.806;2023-03-04T04:58:45;6.00;43.80
4354;DHT22;11018;51.258;6.806;2023-03-04T05:01:12;6.00;44.20
4354;DHT22;11018;51.258;6.806;2023-03-04T05:03:38;6.00;44.50
4354;DHT22;11018;51.258;6.806;2023-03-04T05:06:06;6.00;44.70
4354;DHT22;11018;51.258;6.806;2023-03-04T05:08:32;6.00;44.70
4354;DHT22;11018;51.258;6.806;2023-03-04T05:10:58;5.90;44.80
4354;DHT22;11018;51.258;6.806;2023-03-04T05:13:24;5.90;44.50
4354;DHT22;11018;51.258;6.806;2023-03-04T05:15:51;5.90;43.80
4354;DHT22;11018;51.258;6.806;2023-03-04T05:18:18;5.90;44.00
4354;DHT22;11018;51.258;6.806;2023-03-04T05:20:43;5.90;44.80
4354;DHT22;11018;51.258;6.806;2023-03-04T05:23:09;5.90;45.00
4354;DHT22;11018;51.258;6.806;2023-03-04T05:25:34;5.90;45.10
4354;DHT22;11018;51.258;6.806;2023-03-04T05:28:00;6.00;45.30
4354;DHT22;11018;51.258;6.806;2023-03-04T05:30:26;5.90;45.80
4354;DHT22;11018;51.258;6.806;2023-03-04T05:32:52;5.90;45.90
4354;DHT22;11018;51.258;6.806;2023-03-04T05:35:17;5.90;46.20
4354;DHT22;11018;51.258;6.806;2023-03-04T05:37:43;5.80;45.50
4354;DHT22;11018;51.258;6.806;2023-03-04T05:40:09;5.80;45.80
4354;DHT22;11018;51.258;6.806;2023-03-04T05:42:35;5.80;46.40
4354;DHT22;11018;51.258;6.806;2023-03-04T05:45:00;5.80;45.30
4354;DHT22;11018;51.258;6.806;2023-03-04T05:47:26;5.80;45.10
4354;DHT22;11018;51.258;6.806;2023-03-04T05:49:51;5.90;44.50
4354;DHT22;11018;51.258;6.806;2023-03-04T05:52:18;5.90;44.60
4354;DHT22;11018;51.258;6.806;2023-03-04T05:54:44;5.90;43.80
4354;DHT22;11018;51.258;6.806;2023-03-04T05:57:09;5.90;43.00
4354;DHT22;11018;51.258;6.806;2023-03-04T05:59:35;5.80;43.40
4354;DHT22;11018;51.258;6.806;2023-03-04T06:02:01;5.80;44.00
4354;DHT22;11018;51.258;6.806;2023-03-04T06:04:26;5.80;44.70
4354;DHT22;11018;51.258;6.806;2023-03-04T06:06:52;5.80;45.60
4354;DHT22;11018;51.258;6.806;2023-03-04T06:09:17;5.80;45.70
4354;DHT22;11018;51.258;6.806;2023-03-04T06:11:45;5.80;45.70
4354;DHT22;11018;51.258;6.806;2023-03-04T06:14:11;5.90;45.40
4354;DHT22;11018;51.258;6.806;2023-03-04T06:16:36;5.90;45.60
4354;DHT22;11018;51.258;6.806;2023-03-04T06:19:02;5.90;45.80
4354;DHT22;11018;51.258;6.806;2023-03-04T06:21:27;5.80;45.90
4354;DHT22;11018;51.258;6.806;2023-03-04T06:23:53;5.80;45.30
4354;DHT22;11018;51.258;6.806;2023-03-04T06:26:19;5.90;44.80
4354;DHT22;11018;51.258;6.806;2023-03-04T06:28:44;5.90;44.40
4354;DHT22;11018;51.258;6.806;2023-03-04T06:31:10;5.90;44.30
4354;DHT22;11018;51.258;6.806;2023-03-04T06:33:36;6.00;44.10
4354;DHT22;11018;51.258;6.806;2023-03-04T06:36:01;6.00;44.60
4354;DHT22;11018;51.258;6.806;2023-03-04T06:38:27;6.00;44.70
4354;DHT22;11018;51.258;6.806;2023-03-04T06:40:53;6.00;44.70
4354;DHT22;11018;51.258;6.806;2023-03-04T06:43:19;6.00;44.40
4354;DHT22;11018;51.258;6.806;2023-03-04T06:45:44;6.00;45.10
4354;DHT22;11018;51.258;6.806;2023-03-04T06:48:11;6.00;44.60
4354;DHT22;11018;51.258;6.806;2023-03-04T06:50:39;6.10;44.80
4354;DHT22;11018;51.258;6.806;2023-03-04T06:53:04;6.00;45.20
4354;DHT22;11018;51.258;6.806;2023-03-04T06:55:30;6.00;45.50
4354;DHT22;11018;51.258;6.806;2023-03-04T06:57:55;6.00;45.60
4354;DHT22;11018;51.258;6.806;2023-03-04T07:00:21;6.10;45.40
4354;DHT22;11018;51.258;6.806;2023-03-04T07:02:48;6.10;45.40
4354;DHT22;11018;51.258;6.806;2023-03-04T07:05:13;6.10;45.70
4354;DHT22;11018;51.258;6.806;2023-03-04T07:07:40;6.00;44.80
4354;DHT22;11018;51.258;6.806;2023-03-04T07:10:06;6.00;45.90
4354;DHT22;11018;51.258;6.806;2023-03-04T07:12:31;6.00;46.50
4354;DHT22;11018;51.258;6.806;2023-03-04T07:14:57;6.00;46.80
4354;DHT22;11018;51.258;6.806;2023-03-04T07:17:23;6.00;46.90
4354;DHT22;11018;51.258;6.806;2023-03-04T07:19:48;6.10;47.10
4354;DHT22;11018;51.258;6.806;2023-03-04T07:22:14;6.10;47.70
4354;DHT22;11018;51.258;6.806;2023-03-04T07:24:39;6.00;47.60
4354;DHT22;11018;51.258;6.806;2023-03-04T07:27:05;6.00;47.70
4354;DHT22;11018;51.258;6.806;2023-03-04T07:29:30;6.00;48.40
4354;DHT22;11018;51.258;6.806;2023-03-04T07:31:56;6.10;47.80
4354;DHT22;11018;51.258;6.806;2023-03-04T07:34:22;6.00;48.10
4354;DHT22;11018;51.258;6.806;2023-03-04T07:36:47;6.10;48.00
4354;DHT22;11018;51.258;6.806;2023-03-04T07:39:13;6.10;48.10
4354;DHT22;11018;51.258;6.806;2023-03-04T07:41:39;6.10;48.60
4354;DHT22;11018;51.258;6.806;2023-03-04T07:44:06;5.90;51.90
4354;DHT22;11018;51.258;6.806;2023-03-04T07:46:32;5.80;53.30
4354;DHT22;11018;51.258;6.806;2023-03-04T07:48:58;5.80;55.70
4354;DHT22;11018;51.258;6.806;2023-03-04T07:51:25;5.70;58.90
4354;DHT22;11018;51.258;6.806;2023-03-04T07:53:55;5.70;60.10
4354;DHT22;11018;51.258;6.806;2023-03-04T07:56:24;5.90;60.00
4354;DHT22;11018;51.258;6.806;2023-03-04T07:58:50;5.90;59.80
4354;DHT22;11018;51.258;6.806;2023-03-04T08:01:38;6.00;58.30
4354;DHT22;11018;51.258;6.806;2023-03-04T08:04:05;6.10;58.00
4354;DHT22;11018;51.258;6.806;2023-03-04T08:06:31;6.10;56.70
4354;DHT22;11018;51.258;6.806;2023-03-04T08:09:00;6.10;55.60
4354;DHT22;11018;51.258;6.806;2023-03-04T08:11:27;6.10;55.90
4354;DHT22;11018;51.258;6.806;2023-03-04T08:13:53;6.10;56.90
4354;DHT22;11018;51.258;6.806;2023-03-04T08:16:20;6.10;57.00
4354;DHT22;11018;51.258;6.806;2023-03-04T08:18:50;6.00;58.70
4354;DHT22;11018;51.258;6.806;2023-03-04T08:21:17;6.00;58.40
4354;DHT22;11018;51.258;6.806;2023-03-04T08:23:44;6.10;58.20
4354;DHT22;11018;51.258;6.806;2023-03-04T08:26:13;6.30;57.20
4354;DHT22;11018;51.258;6.806;2023-03-04T08:28:40;6.40;55.30
4354;DHT22;11018;51.258;6.806;2023-03-04T08:31:06;6.40;55.30
4354;DHT22;11018;51.258;6.806;2023-03-04T08:33:32;6.40;55.90
4354;DHT22;11018;51.258;6.806;2023-03-04T08:35:58;6.40;55.90
4354;DHT22;11018;51.258;6.806;2023-03-04T08:38:24;6.30;57.50
4354;DHT22;11018;51.258;6.806;2023-03-04T08:40:55;6.30;59.30
4354;DHT22;11018;51.258;6.806;2023-03-04T08:43:21;6.50;59.80
4354;DHT22;11018;51.258;6.806;2023-03-04T08:45:48;6.40;57.80
4354;DHT22;11018;51.258;6.806;2023-03-04T08:48:14;6.40;58.40
4354;DHT22;11018;51.258;6.806;2023-03-04T08:50:40;6.50;60.50
4354;DHT22;11018;51.258;6.806;2023-03-04T08:53:07;6.60;57.70
4354;DHT22;11018;51.258;6.806;2023-03-04T08:55:32;6.50;57.20
4354;DHT22;11018;51.258;6.806;2023-03-04T08:57:58;6.40;56.90
4354;DHT22;11018;51.258;6.806;2023-03-04T09:00:24;6.80;55.40
4354;DHT22;11018;51.258;6.806;2023-03-04T09:02:49;7.00;52.40
4354;DHT22;11018;51.258;6.806;2023-03-04T09:05:15;7.10;52.50
4354;DHT22;11018;51.258;6.806;2023-03-04T09:07:40;7.00;49.40
4354;DHT22;11018;51.258;6.806;2023-03-04T09:10:06;6.60;51.90
4354;DHT22;11018;51.258;6.806;2023-03-04T09:12:32;6.40;54.00
4354;DHT22;11018;51.258;6.806;2023-03-04T09:14:57;6.50;54.40
4354;DHT22;11018;51.258;6.806;2023-03-04T09:17:23;6.60;52.80
4354;DHT22;11018;51.258;6.806;2023-03-04T09:19:49;6.40;52.90
4354;DHT22;11018;51.258;6.806;2023-03-04T09:22:14;6.30;56.10
4354;DHT22;11018;51.258;6.806;2023-03-04T09:24:40;6.20;62.20
4354;DHT22;11018;51.258;6.806;2023-03-04T09:27:05;6.10;64.00
4354;DHT22;11018;51.258;6.806;2023-03-04T09:29:31;6.20;63.80
4354;DHT22;11018;51.258;6.806;2023-03-04T09:31:56;6.30;60.30
4354;DHT22;11018;51.258;6.806;2023-03-04T09:34:22;6.50;61.90
4354;DHT22;11018;51.258;6.806;2023-03-04T09:36:47;6.50;58.00
4354;DHT22;11018;51.258;6.806;2023-03-04T09:39:13;6.90;58.40
4354;DHT22;11018;51.258;6.806;2023-03-04T09:41:47;7.10;52.70
4354;DHT22;11018;51.258;6.806;2023-03-04T09:46:56;6.90;59.30
4354;DHT22;11018;51.258;6.806;2023-03-04T09:49:23;6.70;59.50
4354;DHT22;11018;51.258;6.806;2023-03-04T09:52:03;6.80;59.00
4354;DHT22;11018;51.258;6.806;2023-03-04T10:00:23;7.40;55.60
4354;DHT22;11018;51.258;6.806;2023-03-04T10:05:31;7.30;52.20
4354;DHT22;11018;51.258;6.806;2023-03-04T10:08:04;7.20;52.60
4354;DHT22;11018;51.258;6.806;2023-03-04T10:10:36;7.30;52.10
4354;DHT22;11018;51.258;6.806;2023-03-04T10:13:05;7.40;51.40
4354;DHT22;11018;51.258;6.806;2023-03-04T10:15:39;7.60;50.90
4354;DHT22;11018;51.258;6.806;2023-03-04T10:18:24;7.80;48.70
4354;DHT22;11018;51.258;6.806;2023-03-04T10:23:46;7.90;48.00
4354;DHT22;11018;51.258;6.806;2023-03-04T10:26:15;8.10;47.50
4354;DHT22;11018;51.258;6.806;2023-03-04T10:28:42;7.90;45.10
4354;DHT22;11018;51.258;6.806;2023-03-04T10:33:39;7.50;49.50
4354;DHT22;11018;51.258;6.806;2023-03-04T10:36:22;7.60;47.70
4354;DHT22;11018;51.258;6.806;2023-03-04T10:39:16;7.80;45.60
4354;DHT22;11018;51.258;6.806;2023-03-04T10:41:44;7.80;44.80
4354;DHT22;11018;51.258;6.806;2023-03-04T10:44:14;8.00;43.60
4354;DHT22;11018;51.258;6.806;2023-03-04T10:46:46;8.00;43.60
4354;DHT22;11018;51.258;6.806;2023-03-04T10:49:14;8.00;43.90
4354;DHT22;11018;51.258;6.806;2023-03-04T10:54:30;7.90;46.30
4354;DHT22;11018;51.258;6.806;2023-03-04T10:57:03;7.90;45.70
4354;DHT22;11018;51.258;6.806;2023-03-04T10:59:57;8.10;44.50
4354;DHT22;11018;51.258;6.806;2023-03-04T11:07:51;8.00;46.30
4354;DHT22;11018;51.258;6.806;2023-03-04T11:10:21;7.80;48.90
4354;DHT22;11018;51.258;6.806;2023-03-04T11:15:24;7.90;48.20
4354;DHT22;11018;51.258;6.806;2023-03-04T11:18:09;8.10;45.20
4354;DHT22;11018;51.258;6.806;2023-03-04T11:20:45;8.00;42.90
4354;DHT22;11018;51.258;6.806;2023-03-04T11:23:16;8.30;43.70
4354;DHT22;11018;51.258;6.806;2023-03-04T11:25:49;8.30;43.20
4354;DHT22;11018;51.258;6.806;2023-03-04T11:28:24;8.20;43.10
4354;DHT22;11018;51.258;6.806;2023-03-04T11:30:57;8.20;42.90
4354;DHT22;11018;51.258;6.806;2023-03-04T11:33:42;8.20;43.80
4354;DHT22;11018;51.258;6.806;2023-03-04T11:44:57;8.70;40.70
4354;DHT22;11018;51.258;6.806;2023-03-04T11:53:03;9.10;38.30
4354;DHT22;11018;51.258;6.806;2023-03-04T12:01:26;8.60;38.80
4354;DHT22;11018;51.258;6.806;2023-03-04T12:04:12;8.40;40.80
4354;DHT22;11018;51.258;6.806;2023-03-04T12:14:46;8.50;41.00
4354;DHT22;11018;51.258;6.806;2023-03-04T12:17:37;8.30;42.10
4354;DHT22;11018;51.258;6.806;2023-03-04T12:20:43;8.20;43.50
4354;DHT22;11018;51.258;6.806;2023-03-04T12:23:25;8.20;45.20
4354;DHT22;11018;51.258;6.806;2023-03-04T12:31:32;8.80;40.40
4354;DHT22;11018;51.258;6.806;2023-03-04T12:44:57;8.80;42.40
4354;DHT22;11018;51.258;6.806;2023-03-04T12:47:34;8.70;42.90
4354;DHT22;11018;51.258;6.806;2023-03-04T12:50:30;8.80;42.70
4354;DHT22;11018;51.258;6.806;2023-03-04T12:53:10;8.80;41.00
4354;DHT22;11018;51.258;6.806;2023-03-04T12:55:43;8.60;42.00
4354;DHT22;11018;51.258;6.806;2023-03-04T12:58:15;8.50;44.00
4354;DHT22;11018;51.258;6.806;2023-03-04T13:00:54;8.30;46.20
4354;DHT22;11018;51.258;6.806;2023-03-04T13:06:13;8.40;46.80
4354;DHT22;11018;51.258;6.806;2023-03-04T13:14:07;8.30;47.50
4354;DHT22;11018;51.258;6.806;2023-03-04T13:16:54;8.10;51.70
4354;DHT22;11018;51.258;6.806;2023-03-04T13:23:16;7.80;58.70
4354;DHT22;11018;51.258;6.806;2023-03-04T13:25:46;7.80;56.80
4354;DHT22;11018;51.258;6.806;2023-03-04T13:38:21;8.00;55.40
4354;DHT22;11018;51.258;6.806;2023-03-04T13:46:40;8.40;53.70
4354;DHT22;11018;51.258;6.806;2023-03-04T13:49:19;8.40;55.40
4354;DHT22;11018;51.258;6.806;2023-03-04T13:51:45;8.30;55.40
4354;DHT22;11018;51.258;6.806;2023-03-04T13:59:31;8.50;53.10
4354;DHT22;11018;51.258;6.806;2023-03-04T14:02:12;8.60;52.50
4354;DHT22;11018;51.258;6.806;2023-03-04T14:04:42;8.50;52.90
4354;DHT22;11018;51.258;6.806;2023-03-04T14:07:22;8.60;52.90
4354;DHT22;11018;51.258;6.806;2023-03-04T14:12:19;8.60;51.70
4354;DHT22;11018;51.258;6.806;2023-03-04T14:14:49;8.50;51.80
4354;DHT22;11018;51.258;6.806;2023-03-04T14:18:06;8.40;52.80
4354;DHT22;11018;51.258;6.806;2023-03-04T14:20:36;8.40;51.80
4354;DHT22;11018;51.258;6.806;2023-03-04T14:23:21;8.40;53.70
4354;DHT22;11018;51.258;6.806;2023-03-04T14:25:47;8.40;53.40
4354;DHT22;11018;51.258;6.806;2023-03-04T14:28:15;8.40;53.20
4354;DHT22;11018;51.258;6.806;2023-03-04T14:30:43;8.40;53.20
4354;DHT22;11018;51.258;6.806;2023-03-04T14:33:18;8.50;52.80
4354;DHT22;11018;51.258;6.806;2023-03-04T14:35:51;8.60;52.70
4354;DHT22;11018;51.258;6.806;2023-03-04T14:38:33;8.60;51.10
4354;DHT22;11018;51.258;6.806;2023-03-04T14:41:23;8.60;53.20
4354;DHT22;11018;51.258;6.806;2023-03-04T14:46:37;8.40;57.00
4354;DHT22;11018;51.258;6.806;2023-03-04T14:49:04;8.40;57.70
4354;DHT22;11018;51.258;6.806;2023-03-04T14:54:02;8.40;57.50
4354;DHT22;11018;51.258;6.806;2023-03-04T14:56:30;8.30;58.80
4354;DHT22;11018;51.258;6.806;2023-03-04T14:58:58;8.30;60.50
4354;DHT22;11018;51.258;6.806;2023-03-04T15:01:33;8.20;60.90
4354;DHT22;11018;51.258;6.806;2023-03-04T15:07:11;8.30;62.10
4354;DHT22;11018;51.258;6.806;2023-03-04T15:09:26;8.40;61.70
4354;DHT22;11018;51.258;6.806;2023-03-04T15:14:46;8.30;61.90
4354;DHT22;11018;51.258;6.806;2023-03-04T15:20:16;8.20;62.70
4354;DHT22;11018;51.258;6.806;2023-03-04T15:25:17;8.20;63.00
4354;DHT22;11018;51.258;6.806;2023-03-04T15:27:44;8.20;63.30
4354;DHT22;11018;51.258;6.806;2023-03-04T15:30:27;8.20;63.80
4354;DHT22;11018;51.258;6.806;2023-03-04T15:32:55;8.10;64.60
4354;DHT22;11018;51.258;6.806;2023-03-04T15:35:21;8.10;64.40
4354;DHT22;11018;51.258;6.806;2023-03-04T15:37:47;7.90;65.60
4354;DHT22;11018;51.258;6.806;2023-03-04T15:40:35;7.80;66.60
4354;DHT22;11018;51.258;6.806;2023-03-04T15:43:04;7.70;68.40
4354;DHT22;11018;51.258;6.806;2023-03-04T15:45:34;7.70;69.80
4354;DHT22;11018;51.258;6.806;2023-03-04T15:48:01;7.70;71.30
4354;DHT22;11018;51.258;6.806;2023-03-04T15:50:34;7.80;71.10
4354;DHT22;11018;51.258;6.806;2023-03-04T15:53:02;7.80;72.70
4354;DHT22;11018;51.258;6.806;2023-03-04T15:55:29;7.80;71.90
4354;DHT22;11018;51.258;6.806;2023-03-04T15:57:57;7.70;71.40
4354;DHT22;11018;51.258;6.806;2023-03-04T16:00:23;7.70;72.60
4354;DHT22;11018;51.258;6.806;2023-03-04T16:02:49;7.80;70.40
4354;DHT22;11018;51.258;6.806;2023-03-04T16:05:15;7.80;70.60
4354;DHT22;11018;51.258;6.806;2023-03-04T16:07:44;7.80;70.40
4354;DHT22;11018;51.258;6.806;2023-03-04T16:10:35;7.70;71.00
4354;DHT22;11018;51.258;6.806;2023-03-04T16:13:01;7.70;72.80
4354;DHT22;11018;51.258;6.806;2023-03-04T16:15:28;7.70;72.40
4354;DHT22;11018;51.258;6.806;2023-03-04T16:17:55;7.60;66.30
4354;DHT22;11018;51.258;6.806;2023-03-04T16:20:23;7.40;64.40
4354;DHT22;11018;51.258;6.806;2023-03-04T16:22:52;7.30;66.50
4354;DHT22;11018;51.258;6.806;2023-03-04T16:25:20;7.30;64.60
4354;DHT22;11018;51.258;6.806;2023-03-04T16:27:47;7.30;64.20
4354;DHT22;11018;51.258;6.806;2023-03-04T16:30:20;7.40;59.40
4354;DHT22;11018;51.258;6.806;2023-03-04T16:32:46;7.40;57.20
4354;DHT22;11018;51.258;6.806;2023-03-04T16:35:13;7.40;58.30
4354;DHT22;11018;51.258;6.806;2023-03-04T16:37:39;7.50;54.90
4354;DHT22;11018;51.258;6.806;2023-03-04T16:40:06;7.50;56.60
4354;DHT22;11018;51.258;6.806;2023-03-04T16:42:33;7.50;54.90
4354;DHT22;11018;51.258;6.806;2023-03-04T16:44:59;7.60;54.80
4354;DHT22;11018;51.258;6.806;2023-03-04T16:47:25;7.50;51.00
4354;DHT22;11018;51.258;6.806;2023-03-04T16:49:50;7.50;52.00
4354;DHT22;11018;51.258;6.806;2023-03-04T16:52:28;7.50;50.40
4354;DHT22;11018;51.258;6.806;2023-03-04T16:54:55;7.60;50.20
4354;DHT22;11018;51.258;6.806;2023-03-04T16:57:22;7.50;49.40
4354;DHT22;11018;51.258;6.806;2023-03-04T16:59:47;7.50;48.50
4354;DHT22;11018;51.258;6.806;2023-03-04T17:02:19;7.50;49.20
4354;DHT22;11018;51.258;6.806;2023-03-04T17:04:47;7.50;48.80
4354;DHT22;11018;51.258;6.806;2023-03-04T17:07:13;7.50;49.10
4354;DHT22;11018;51.258;6.806;2023-03-04T17:09:39;7.50;48.00
4354;DHT22;11018;51.258;6.806;2023-03-04T17:12:07;7.50;48.70
4354;DHT22;11018;51.258;6.806;2023-03-04T17:14:33;7.50;48.10
4354;DHT22;11018;51.258;6.806;2023-03-04T17:16:59;7.50;47.80
4354;DHT22;11018;51.258;6.806;2023-03-04T17:19:26;7.50;48.00
4354;DHT22;11018;51.258;6.806;2023-03-04T17:21:51;7.50;47.20
4354;DHT22;11018;51.258;6.806;2023-03-04T17:24:17;7.50;46.60
4354;DHT22;11018;51.258;6.806;2023-03-04T17:26:42;7.50;46.70
4354;DHT22;11018;51.258;6.806;2023-03-04T17:29:09;7.50;46.50
4354;DHT22;11018;51.258;6.806;2023-03-04T17:31:35;7.50;46.50
4354;DHT22;11018;51.258;6.806;2023-03-04T17:34:01;7.50;45.40
4354;DHT22;11018;51.258;6.806;2023-03-04T17:36:27;7.50;42.10
4354;DHT22;11018;51.258;6.806;2023-03-04T17:38:53;7.50;45.30
4354;DHT22;11018;51.258;6.806;2023-03-04T17:41:19;7.40;41.70
4354;DHT22;11018;51.258;6.806;2023-03-04T17:43:48;7.50;42.70
4354;DHT22;11018;51.258;6.806;2023-03-04T17:46:17;7.50;40.30
4354;DHT22;11018;51.258;6.806;2023-03-04T17:48:43;7.50;39.70
4354;DHT22;11018;51.258;6.806;2023-03-04T17:51:09;7.50;38.40
4354;DHT22;11018;51.258;6.806;2023-03-04T17:53:36;7.50;39.10
4354;DHT22;11018;51.258;6.806;2023-03-04T17:56:03;7.60;37.80
4354;DHT22;11018;51.258;6.806;2023-03-04T17:58:31;7.60;37.80
4354;DHT22;11018;51.258;6.806;2023-03-04T18:01:16;7.60;36.10
4354;DHT22;11018;51.258;6.806;2023-03-04T18:03:42;7.60;35.40
4354;DHT22;11018;51.258;6.806;2023-03-04T18:06:07;7.60;35.00
4354;DHT22;11018;51.258;6.806;2023-03-04T18:08:33;7.60;35.50
4354;DHT22;11018;51.258;6.806;2023-03-04T18:10:59;7.60;35.40
4354;DHT22;11018;51.258;6.806;2023-03-04T18:13:25;7.60;35.50
4354;DHT22;11018;51.258;6.806;2023-03-04T18:15:50;7.60;36.00